sensor_id;sensor_type;location;lat;lon;timestamp;P1;durP1;ratioP1;P2;durP2;ratioP2
8704;SDS011;4389;41.932;25.904;2024-02-04T00:01:03;11.90;;;9.20;;
8704;SDS011;4389;41.932;25.904;2024-02-04T00:03:31;19.17;;;10.33;;
8704;SDS011;4389;41.932;25.904;2024-02-04T00:05:58;13.23;;;11.20;;
8704;SDS011;4389;41.932;25.904;2024-02-04T00:08:25;15.73;;;11.83;;
8704;SDS011;4389;41.932;25.904;2024-02-04T00:10:52;14.77;;;10.87;;
8704;SDS011;4389;41.932;25.904;2024-02-04T00:13:19;18.07;;;13.13;;
8704;SDS011;4389;41.932;25.904;2024-02-04T00:15:46;21.23;;;13.87;;
8704;SDS011;4389;41.932;25.904;2024-02-04T00:18:13;31.73;;;12.53;;
8704;SDS011;4389;41.932;25.904;2024-02-04T00:20:42;13.67;;;10.50;;
8704;SDS011;4389;41.932;25.904;2024-02-04T00:23:09;15.30;;;11.20;;
8704;SDS011;4389;41.932;25.904;2024-02-04T00:25:35;15.43;;;9.97;;
8704;SDS011;4389;41.932;25.904;2024-02-04T00:28:03;14.10;;;10.37;;
8704;SDS011;4389;41.932;25.904;2024-02-04T00:30:30;16.23;;;10.93;;
8704;SDS011;4389;41.932;25.904;2024-02-04T00:32:57;16.60;;;12.37;;
8704;SDS011;4389;41.932;25.904;2024-02-04T00:35:28;24.00;;;12.87;;
8704;SDS011;4389;41.932;25.904;2024-02-04T00:37:56;15.73;;;11.70;;
8704;SDS011;4389;41.932;25.904;2024-02-04T00:40:23;17.37;;;11.90;;
8704;SDS011;4389;41.932;25.904;2024-02-04T00:42:52;19.30;;;11.70;;
8704;SDS011;4389;41.932;25.904;2024-02-04T00:45:19;14.13;;;10.93;;
8704;SDS011;4389;41.932;25.904;2024-02-04T00:47:45;16.33;;;10.90;;
8704;SDS011;4389;41.932;25.904;2024-02-04T00:50:12;20.67;;;13.27;;
8704;SDS011;4389;41.932;25.904;2024-02-04T00:52:39;17.20;;;11.50;;
8704;SDS011;4389;41.932;25.904;2024-02-04T00:55:08;20.80;;;13.07;;
8704;SDS011;4389;41.932;25.904;2024-02-04T00:57:35;17.70;;;13.47;;
8704;SDS011;4389;41.932;25.904;2024-02-04T01:00:02;14.90;;;11.27;;
8704;SDS011;4389;41.932;25.904;2024-02-04T01:02:29;16.43;;;11.20;;
8704;SDS011;4389;41.932;25.904;2024-02-04T01:04:56;13.10;;;11.23;;
8704;SDS011;4389;41.932;25.904;2024-02-04T01:07:23;17.70;;;12.50;;
8704;SDS011;4389;41.932;25.904;2024-02-04T01:09:50;14.83;;;10.30;;
8704;SDS011;4389;41.932;25.904;2024-02-04T01:12:19;12.70;;;10.27;;
8704;SDS011;4389;41.932;25.904;2024-02-04T01:14:45;14.83;;;11.43;;
8704;SDS011;4389;41.932;25.904;2024-02-04T01:17:12;16.47;;;11.67;;
8704;SDS011;4389;41.932;25.904;2024-02-04T01:19:39;13.77;;;10.60;;
8704;SDS011;4389;41.932;25.904;2024-02-04T01:22:06;18.07;;;10.80;;
8704;SDS011;4389;41.932;25.904;2024-02-04T01:24:32;15.43;;;11.27;;
8704;SDS011;4389;41.932;25.904;2024-02-04T01:26:59;12.67;;;10.30;;
8704;SDS011;4389;41.932;25.904;2024-02-04T01:29:28;14.73;;;10.10;;
8704;SDS011;4389;41.932;25.904;2024-02-04T01:31:54;14.00;;;10.77;;
8704;SDS011;4389;41.932;25.904;2024-02-04T01:34:21;16.73;;;11.27;;
8704;SDS011;4389;41.932;25.904;2024-02-04T01:36:48;47.67;;;13.53;;
8704;SDS011;4389;41.932;25.904;2024-02-04T01:39:15;20.60;;;11.40;;
8704;SDS011;4389;41.932;25.904;2024-02-04T01:41:42;21.77;;;12.10;;
8704;SDS011;4389;41.932;25.904;2024-02-04T01:44:10;17.03;;;11.70;;
8704;SDS011;4389;41.932;25.904;2024-02-04T01:46:39;17.17;;;13.23;;
8704;SDS011;4389;41.932;25.904;2024-02-04T01:49:06;14.67;;;10.90;;
8704;SDS011;4389;41.932;25.904;2024-02-04T01:51:33;14.50;;;10.67;;
8704;SDS011;4389;41.932;25.904;2024-02-04T01:54:01;16.07;;;12.67;;
8704;SDS011;4389;41.932;25.904;2024-02-04T01:56:28;20.70;;;13.00;;
8704;SDS011;4389;41.932;25.904;2024-02-04T01:58:56;19.53;;;13.40;;
8704;SDS011;4389;41.932;25.904;2024-02-04T02:01:24;20.07;;;14.43;;
8704;SDS011;4389;41.932;25.904;2024-02-04T02:03:54;16.93;;;12.40;;
8704;SDS011;4389;41.932;25.904;2024-02-04T02:06:22;17.17;;;12.27;;
8704;SDS011;4389;41.932;25.904;2024-02-04T02:08:49;13.33;;;10.20;;
8704;SDS011;4389;41.932;25.904;2024-02-04T02:11:21;15.03;;;10.93;;
8704;SDS011;4389;41.932;25.904;2024-02-04T02:13:52;14.93;;;10.53;;
8704;SDS011;4389;41.932;25.904;2024-02-04T02:16:26;17.30;;;11.67;;
8704;SDS011;4389;41.932;25.904;2024-02-04T02:19:00;18.33;;;11.57;;
8704;SDS011;4389;41.932;25.904;2024-02-04T02:21:38;12.90;;;10.23;;
8704;SDS011;4389;41.932;25.904;2024-02-04T02:24:14;15.90;;;11.37;;
8704;SDS011;4389;41.932;25.904;2024-02-04T02:26:48;13.47;;;11.10;;
8704;SDS011;4389;41.932;25.904;2024-02-04T02:29:16;14.23;;;10.70;;
8704;SDS011;4389;41.932;25.904;2024-02-04T02:31:43;15.00;;;11.53;;
8704;SDS011;4389;41.932;25.904;2024-02-04T02:34:11;13.27;;;10.23;;
8704;SDS011;4389;41.932;25.904;2024-02-04T02:36:40;17.10;;;10.63;;
8704;SDS011;4389;41.932;25.904;2024-02-04T02:39:13;13.73;;;10.70;;
8704;SDS011;4389;41.932;25.904;2024-02-04T02:41:44;16.50;;;10.73;;
8704;SDS011;4389;41.932;25.904;2024-02-04T02:44:17;14.17;;;10.10;;
8704;SDS011;4389;41.932;25.904;2024-02-04T02:46:45;17.67;;;11.13;;
8704;SDS011;4389;41.932;25.904;2024-02-04T02:49:12;19.57;;;10.90;;
8704;SDS011;4389;41.932;25.904;2024-02-04T02:51:40;14.03;;;10.47;;
8704;SDS011;4389;41.932;25.904;2024-02-04T02:54:06;17.57;;;11.47;;
8704;SDS011;4389;41.932;25.904;2024-02-04T02:56:33;14.40;;;10.97;;
8704;SDS011;4389;41.932;25.904;2024-02-04T02:59:00;15.03;;;10.60;;
8704;SDS011;4389;41.932;25.904;2024-02-04T03:01:28;13.00;;;11.10;;
8704;SDS011;4389;41.932;25.904;2024-02-04T03:03:55;15.63;;;11.23;;
8704;SDS011;4389;41.932;25.904;2024-02-04T03:06:22;13.90;;;10.57;;
8704;SDS011;4389;41.932;25.904;2024-02-04T03:08:49;12.60;;;9.87;;
8704;SDS011;4389;41.932;25.904;2024-02-04T03:11:16;15.27;;;10.73;;
8704;SDS011;4389;41.932;25.904;2024-02-04T03:13:43;22.10;;;15.73;;
8704;SDS011;4389;41.932;25.904;2024-02-04T03:16:10;16.27;;;10.67;;
8704;SDS011;4389;41.932;25.904;2024-02-04T03:18:40;14.70;;;10.70;;
8704;SDS011;4389;41.932;25.904;2024-02-04T03:21:11;15.53;;;10.63;;
8704;SDS011;4389;41.932;25.904;2024-02-04T03:23:39;21.70;;;13.30;;
8704;SDS011;4389;41.932;25.904;2024-02-04T03:26:07;15.63;;;10.60;;
8704;SDS011;4389;41.932;25.904;2024-02-04T03:28:33;16.37;;;11.13;;
8704;SDS011;4389;41.932;25.904;2024-02-04T03:31:00;18.90;;;11.03;;
8704;SDS011;4389;41.932;25.904;2024-02-04T03:33:27;12.13;;;10.37;;
8704;SDS011;4389;41.932;25.904;2024-02-04T03:35:55;19.83;;;11.33;;
8704;SDS011;4389;41.932;25.904;2024-02-04T03:38:22;21.57;;;13.47;;
8704;SDS011;4389;41.932;25.904;2024-02-04T03:40:49;14.13;;;11.13;;
8704;SDS011;4389;41.932;25.904;2024-02-04T03:43:16;17.87;;;11.10;;
8704;SDS011;4389;41.932;25.904;2024-02-04T03:45:42;18.90;;;10.73;;
8704;SDS011;4389;41.932;25.904;2024-02-04T03:48:09;17.67;;;11.37;;
8704;SDS011;4389;41.932;25.904;2024-02-04T03:50:36;17.47;;;10.73;;
8704;SDS011;4389;41.932;25.904;2024-02-04T03:53:04;16.37;;;11.30;;
8704;SDS011;4389;41.932;25.904;2024-02-04T03:55:31;13.07;;;10.43;;
8704;SDS011;4389;41.932;25.904;2024-02-04T03:57:58;17.50;;;10.97;;
8704;SDS011;4389;41.932;25.904;2024-02-04T04:00:24;18.33;;;11.40;;
8704;SDS011;4389;41.932;25.904;2024-02-04T04:02:51;12.87;;;10.23;;
8704;SDS011;4389;41.932;25.904;2024-02-04T04:05:18;13.20;;;10.27;;
8704;SDS011;4389;41.932;25.904;2024-02-04T04:07:45;16.93;;;11.70;;
8704;SDS011;4389;41.932;25.904;2024-02-04T04:10:13;17.37;;;13.07;;
8704;SDS011;4389;41.932;25.904;2024-02-04T04:12:40;17.77;;;13.43;;
8704;SDS011;4389;41.932;25.904;2024-02-04T04:15:07;19.77;;;13.37;;
8704;SDS011;4389;41.932;25.904;2024-02-04T04:17:34;14.80;;;11.50;;
8704;SDS011;4389;41.932;25.904;2024-02-04T04:20:01;16.60;;;13.10;;
8704;SDS011;4389;41.932;25.904;2024-02-04T04:22:28;16.73;;;12.17;;
8704;SDS011;4389;41.932;25.904;2024-02-04T04:24:55;18.37;;;13.00;;
8704;SDS011;4389;41.932;25.904;2024-02-04T04:27:23;43.17;;;14.73;;
8704;SDS011;4389;41.932;25.904;2024-02-04T04:29:50;29.90;;;12.73;;
8704;SDS011;4389;41.932;25.904;2024-02-04T04:32:17;16.37;;;12.13;;
8704;SDS011;4389;41.932;25.904;2024-02-04T04:34:43;18.60;;;12.23;;
8704;SDS011;4389;41.932;25.904;2024-02-04T04:37:10;19.73;;;13.23;;
8704;SDS011;4389;41.932;25.904;2024-02-04T04:39:37;18.57;;;11.60;;
8704;SDS011;4389;41.932;25.904;2024-02-04T04:42:04;14.83;;;11.23;;
8704;SDS011;4389;41.932;25.904;2024-02-04T04:44:32;14.83;;;12.03;;
8704;SDS011;4389;41.932;25.904;2024-02-04T04:46:58;16.07;;;12.07;;
8704;SDS011;4389;41.932;25.904;2024-02-04T04:49:25;16.73;;;12.50;;
8704;SDS011;4389;41.932;25.904;2024-02-04T04:51:52;18.67;;;11.80;;
8704;SDS011;4389;41.932;25.904;2024-02-04T04:54:18;16.23;;;12.53;;
8704;SDS011;4389;41.932;25.904;2024-02-04T04:56:45;16.47;;;13.37;;
8704;SDS011;4389;41.932;25.904;2024-02-04T04:59:12;17.20;;;13.63;;
8704;SDS011;4389;41.932;25.904;2024-02-04T05:01:45;17.67;;;13.17;;
8704;SDS011;4389;41.932;25.904;2024-02-04T05:04:13;19.87;;;13.77;;
8704;SDS011;4389;41.932;25.904;2024-02-04T05:06:39;41.07;;;16.57;;
8704;SDS011;4389;41.932;25.904;2024-02-04T05:09:06;22.10;;;14.60;;
8704;SDS011;4389;41.932;25.904;2024-02-04T05:11:35;33.60;;;14.07;;
8704;SDS011;4389;41.932;25.904;2024-02-04T05:14:01;19.87;;;14.70;;
8704;SDS011;4389;41.932;25.904;2024-02-04T05:16:29;21.50;;;13.93;;
8704;SDS011;4389;41.932;25.904;2024-02-04T05:18:58;24.10;;;14.23;;
8704;SDS011;4389;41.932;25.904;2024-02-04T05:21:25;19.13;;;13.03;;
8704;SDS011;4389;41.932;25.904;2024-02-04T05:23:51;20.40;;;13.70;;
8704;SDS011;4389;41.932;25.904;2024-02-04T05:26:18;16.93;;;12.13;;
8704;SDS011;4389;41.932;25.904;2024-02-04T05:28:45;19.77;;;14.17;;
8704;SDS011;4389;41.932;25.904;2024-02-04T05:31:12;21.63;;;13.17;;
8704;SDS011;4389;41.932;25.904;2024-02-04T05:33:39;18.17;;;12.47;;
8704;SDS011;4389;41.932;25.904;2024-02-04T05:36:07;25.63;;;14.87;;
8704;SDS011;4389;41.932;25.904;2024-02-04T05:38:34;21.57;;;13.67;;
8704;SDS011;4389;41.932;25.904;2024-02-04T05:41:01;17.80;;;12.23;;
8704;SDS011;4389;41.932;25.904;2024-02-04T05:43:28;16.43;;;11.77;;
8704;SDS011;4389;41.932;25.904;2024-02-04T05:45:55;16.03;;;11.90;;
8704;SDS011;4389;41.932;25.904;2024-02-04T05:48:21;19.33;;;13.47;;
8704;SDS011;4389;41.932;25.904;2024-02-04T05:50:48;18.27;;;12.20;;
8704;SDS011;4389;41.932;25.904;2024-02-04T05:53:16;14.57;;;11.53;;
8704;SDS011;4389;41.932;25.904;2024-02-04T05:55:43;15.27;;;11.53;;
8704;SDS011;4389;41.932;25.904;2024-02-04T05:58:10;16.00;;;11.73;;
8704;SDS011;4389;41.932;25.904;2024-02-04T06:00:39;21.40;;;12.60;;
8704;SDS011;4389;41.932;25.904;2024-02-04T06:03:06;17.73;;;12.50;;
8704;SDS011;4389;41.932;25.904;2024-02-04T06:05:32;17.57;;;13.33;;
8704;SDS011;4389;41.932;25.904;2024-02-04T06:07:59;14.87;;;12.20;;
8704;SDS011;4389;41.932;25.904;2024-02-04T06:10:27;16.43;;;12.83;;
8704;SDS011;4389;41.932;25.904;2024-02-04T06:12:54;18.13;;;14.00;;
8704;SDS011;4389;41.932;25.904;2024-02-04T06:15:21;24.17;;;14.23;;
8704;SDS011;4389;41.932;25.904;2024-02-04T06:17:48;25.87;;;14.20;;
8704;SDS011;4389;41.932;25.904;2024-02-04T06:20:15;19.77;;;13.43;;
8704;SDS011;4389;41.932;25.904;2024-02-04T06:22:42;19.67;;;13.77;;
8704;SDS011;4389;41.932;25.904;2024-02-04T06:25:09;20.57;;;13.83;;
8704;SDS011;4389;41.932;25.904;2024-02-04T06:27:37;16.87;;;12.63;;
8704;SDS011;4389;41.932;25.904;2024-02-04T06:30:06;17.10;;;12.73;;
8704;SDS011;4389;41.932;25.904;2024-02-04T06:32:33;17.03;;;13.23;;
8704;SDS011;4389;41.932;25.904;2024-02-04T06:34:59;15.90;;;13.83;;
8704;SDS011;4389;41.932;25.904;2024-02-04T06:37:26;25.67;;;14.77;;
8704;SDS011;4389;41.932;25.904;2024-02-04T06:39:53;18.30;;;14.97;;
8704;SDS011;4389;41.932;25.904;2024-02-04T06:42:20;30.33;;;16.80;;
8704;SDS011;4389;41.932;25.904;2024-02-04T06:44:48;23.40;;;16.57;;
8704;SDS011;4389;41.932;25.904;2024-02-04T06:47:15;25.13;;;16.37;;
8704;SDS011;4389;41.932;25.904;2024-02-04T06:49:43;32.57;;;16.27;;
8704;SDS011;4389;41.932;25.904;2024-02-04T06:52:10;21.90;;;15.13;;
8704;SDS011;4389;41.932;25.904;2024-02-04T06:54:37;21.70;;;15.47;;
8704;SDS011;4389;41.932;25.904;2024-02-04T06:57:04;21.50;;;16.37;;
8704;SDS011;4389;41.932;25.904;2024-02-04T06:59:31;24.97;;;17.60;;
8704;SDS011;4389;41.932;25.904;2024-02-04T07:01:59;18.13;;;15.60;;
8704;SDS011;4389;41.932;25.904;2024-02-04T07:04:26;23.27;;;16.43;;
8704;SDS011;4389;41.932;25.904;2024-02-04T07:06:53;23.10;;;15.53;;
8704;SDS011;4389;41.932;25.904;2024-02-04T07:09:20;24.57;;;14.40;;
8704;SDS011;4389;41.932;25.904;2024-02-04T07:11:46;24.00;;;14.63;;
8704;SDS011;4389;41.932;25.904;2024-02-04T07:14:13;22.53;;;15.93;;
8704;SDS011;4389;41.932;25.904;2024-02-04T07:16:40;21.43;;;16.53;;
8704;SDS011;4389;41.932;25.904;2024-02-04T07:19:09;23.63;;;16.43;;
8704;SDS011;4389;41.932;25.904;2024-02-04T07:21:36;24.83;;;16.40;;
8704;SDS011;4389;41.932;25.904;2024-02-04T07:24:03;20.93;;;15.77;;
8704;SDS011;4389;41.932;25.904;2024-02-04T07:26:30;24.13;;;15.70;;
8704;SDS011;4389;41.932;25.904;2024-02-04T07:28:56;29.37;;;17.40;;
8704;SDS011;4389;41.932;25.904;2024-02-04T07:31:24;23.53;;;16.50;;
8704;SDS011;4389;41.932;25.904;2024-02-04T07:33:50;24.73;;;16.20;;
8704;SDS011;4389;41.932;25.904;2024-02-04T07:36:19;60.57;;;19.13;;
8704;SDS011;4389;41.932;25.904;2024-02-04T07:38:46;22.90;;;15.70;;
8704;SDS011;4389;41.932;25.904;2024-02-04T07:41:14;22.00;;;14.80;;
8704;SDS011;4389;41.932;25.904;2024-02-04T07:43:42;24.70;;;16.23;;
8704;SDS011;4389;41.932;25.904;2024-02-04T07:46:09;22.33;;;15.80;;
8704;SDS011;4389;41.932;25.904;2024-02-04T07:48:36;21.40;;;15.30;;
8704;SDS011;4389;41.932;25.904;2024-02-04T07:51:03;20.27;;;14.80;;
8704;SDS011;4389;41.932;25.904;2024-02-04T07:53:31;21.57;;;15.30;;
8704;SDS011;4389;41.932;25.904;2024-02-04T07:55:58;22.13;;;15.73;;
8704;SDS011;4389;41.932;25.904;2024-02-04T07:58:25;21.13;;;15.60;;
8704;SDS011;4389;41.932;25.904;2024-02-04T08:00:52;22.87;;;15.20;;
8704;SDS011;4389;41.932;25.904;2024-02-04T08:03:19;21.93;;;15.43;;
8704;SDS011;4389;41.932;25.904;2024-02-04T08:05:46;22.13;;;15.37;;
8704;SDS011;4389;41.932;25.904;2024-02-04T08:08:13;19.77;;;13.53;;
8704;SDS011;4389;41.932;25.904;2024-02-04T08:10:41;21.23;;;15.47;;
8704;SDS011;4389;41.932;25.904;2024-02-04T08:13:08;42.20;;;15.90;;
8704;SDS011;4389;41.932;25.904;2024-02-04T08:15:35;23.60;;;14.60;;
8704;SDS011;4389;41.932;25.904;2024-02-04T08:18:02;26.20;;;15.97;;
8704;SDS011;4389;41.932;25.904;2024-02-04T08:20:30;22.03;;;14.93;;
8704;SDS011;4389;41.932;25.904;2024-02-04T08:22:57;22.57;;;15.10;;
8704;SDS011;4389;41.932;25.904;2024-02-04T08:25:24;23.70;;;16.57;;
8704;SDS011;4389;41.932;25.904;2024-02-04T08:27:53;23.47;;;15.77;;
8704;SDS011;4389;41.932;25.904;2024-02-04T08:30:20;20.13;;;14.57;;
8704;SDS011;4389;41.932;25.904;2024-02-04T08:32:47;22.40;;;15.83;;
8704;SDS011;4389;41.932;25.904;2024-02-04T08:35:14;18.60;;;14.03;;
8704;SDS011;4389;41.932;25.904;2024-02-04T08:37:41;19.17;;;13.73;;
8704;SDS011;4389;41.932;25.904;2024-02-04T08:40:08;24.40;;;14.77;;
8704;SDS011;4389;41.932;25.904;2024-02-04T08:42:36;20.87;;;14.63;;
8704;SDS011;4389;41.932;25.904;2024-02-04T08:45:05;21.70;;;14.80;;
8704;SDS011;4389;41.932;25.904;2024-02-04T08:47:32;17.13;;;13.17;;
8704;SDS011;4389;41.932;25.904;2024-02-04T08:49:59;21.67;;;13.90;;
8704;SDS011;4389;41.932;25.904;2024-02-04T08:52:26;19.43;;;12.43;;
8704;SDS011;4389;41.932;25.904;2024-02-04T08:54:53;19.30;;;12.40;;
8704;SDS011;4389;41.932;25.904;2024-02-04T08:57:21;22.40;;;13.30;;
8704;SDS011;4389;41.932;25.904;2024-02-04T08:59:48;19.80;;;14.00;;
8704;SDS011;4389;41.932;25.904;2024-02-04T09:02:16;21.43;;;14.33;;
8704;SDS011;4389;41.932;25.904;2024-02-04T09:04:43;16.53;;;12.63;;
8704;SDS011;4389;41.932;25.904;2024-02-04T09:07:10;18.20;;;13.67;;
8704;SDS011;4389;41.932;25.904;2024-02-04T09:09:37;26.33;;;13.03;;
8704;SDS011;4389;41.932;25.904;2024-02-04T09:12:05;22.70;;;14.27;;
8704;SDS011;4389;41.932;25.904;2024-02-04T09:14:32;18.57;;;11.77;;
8704;SDS011;4389;41.932;25.904;2024-02-04T09:16:59;17.13;;;12.60;;
8704;SDS011;4389;41.932;25.904;2024-02-04T09:19:30;17.67;;;12.53;;
8704;SDS011;4389;41.932;25.904;2024-02-04T09:21:58;15.87;;;12.33;;
8704;SDS011;4389;41.932;25.904;2024-02-04T09:24:27;16.67;;;12.83;;
8704;SDS011;4389;41.932;25.904;2024-02-04T09:26:53;18.23;;;13.40;;
8704;SDS011;4389;41.932;25.904;2024-02-04T09:29:20;15.60;;;11.67;;
8704;SDS011;4389;41.932;25.904;2024-02-04T09:31:48;18.67;;;12.40;;
8704;SDS011;4389;41.932;25.904;2024-02-04T09:34:16;16.93;;;12.30;;
8704;SDS011;4389;41.932;25.904;2024-02-04T09:36:46;21.50;;;11.57;;
8704;SDS011;4389;41.932;25.904;2024-02-04T09:39:13;14.73;;;11.37;;
8704;SDS011;4389;41.932;25.904;2024-02-04T09:41:40;16.50;;;12.40;;
8704;SDS011;4389;41.932;25.904;2024-02-04T09:44:07;18.27;;;11.43;;
8704;SDS011;4389;41.932;25.904;2024-02-04T09:46:35;20.90;;;13.20;;
8704;SDS011;4389;41.932;25.904;2024-02-04T09:49:02;24.63;;;14.63;;
8704;SDS011;4389;41.932;25.904;2024-02-04T09:51:30;15.27;;;12.33;;
8704;SDS011;4389;41.932;25.904;2024-02-04T09:54:00;17.27;;;13.30;;
8704;SDS011;4389;41.932;25.904;2024-02-04T09:56:31;20.80;;;13.07;;
8704;SDS011;4389;41.932;25.904;2024-02-04T09:59:01;21.40;;;13.23;;
8704;SDS011;4389;41.932;25.904;2024-02-04T10:01:28;27.83;;;12.80;;
8704;SDS011;4389;41.932;25.904;2024-02-04T10:03:57;19.80;;;12.70;;
8704;SDS011;4389;41.932;25.904;2024-02-04T10:06:24;18.40;;;10.90;;
8704;SDS011;4389;41.932;25.904;2024-02-04T10:08:51;16.97;;;11.07;;
8704;SDS011;4389;41.932;25.904;2024-02-04T10:11:20;23.67;;;12.63;;
8704;SDS011;4389;41.932;25.904;2024-02-04T10:13:47;29.63;;;18.93;;
8704;SDS011;4389;41.932;25.904;2024-02-04T10:16:15;24.27;;;14.27;;
8704;SDS011;4389;41.932;25.904;2024-02-04T10:18:43;23.90;;;13.60;;
8704;SDS011;4389;41.932;25.904;2024-02-04T10:21:17;15.37;;;13.23;;
8704;SDS011;4389;41.932;25.904;2024-02-04T10:23:44;15.77;;;12.23;;
8704;SDS011;4389;41.932;25.904;2024-02-04T10:26:11;19.93;;;14.20;;
8704;SDS011;4389;41.932;25.904;2024-02-04T10:28:40;33.87;;;17.87;;
8704;SDS011;4389;41.932;25.904;2024-02-04T10:31:08;17.13;;;13.73;;
8704;SDS011;4389;41.932;25.904;2024-02-04T10:33:36;18.10;;;14.60;;
8704;SDS011;4389;41.932;25.904;2024-02-04T10:36:03;23.63;;;13.80;;
8704;SDS011;4389;41.932;25.904;2024-02-04T10:38:30;23.70;;;14.47;;
8704;SDS011;4389;41.932;25.904;2024-02-04T10:40:58;18.63;;;13.57;;
8704;SDS011;4389;41.932;25.904;2024-02-04T10:43:27;28.17;;;14.87;;
8704;SDS011;4389;41.932;25.904;2024-02-04T10:46:00;20.37;;;14.73;;
8704;SDS011;4389;41.932;25.904;2024-02-04T10:48:32;24.40;;;15.80;;
8704;SDS011;4389;41.932;25.904;2024-02-04T10:51:09;30.10;;;14.93;;
8704;SDS011;4389;41.932;25.904;2024-02-04T10:53:40;18.93;;;13.60;;
8704;SDS011;4389;41.932;25.904;2024-02-04T10:56:10;24.17;;;17.30;;
8704;SDS011;4389;41.932;25.904;2024-02-04T10:58:44;23.13;;;17.47;;
8704;SDS011;4389;41.932;25.904;2024-02-04T11:01:14;16.70;;;13.07;;
8704;SDS011;4389;41.932;25.904;2024-02-04T11:03:41;14.50;;;10.80;;
8704;SDS011;4389;41.932;25.904;2024-02-04T11:06:09;18.63;;;13.43;;
8704;SDS011;4389;41.932;25.904;2024-02-04T11:08:37;17.03;;;12.30;;
8704;SDS011;4389;41.932;25.904;2024-02-04T11:11:05;20.93;;;12.10;;
8704;SDS011;4389;41.932;25.904;2024-02-04T11:13:32;16.17;;;11.67;;
8704;SDS011;4389;41.932;25.904;2024-02-04T11:16:01;17.20;;;11.03;;
8704;SDS011;4389;41.932;25.904;2024-02-04T11:18:39;17.97;;;11.63;;
8704;SDS011;4389;41.932;25.904;2024-02-04T11:21:25;16.47;;;11.10;;
8704;SDS011;4389;41.932;25.904;2024-02-04T11:24:13;14.07;;;11.40;;
8704;SDS011;4389;41.932;25.904;2024-02-04T11:26:54;18.37;;;13.57;;
8704;SDS011;4389;41.932;25.904;2024-02-04T11:29:21;15.40;;;11.87;;
8704;SDS011;4389;41.932;25.904;2024-02-04T11:31:48;14.37;;;12.07;;
8704;SDS011;4389;41.932;25.904;2024-02-04T11:34:17;16.23;;;11.80;;
8704;SDS011;4389;41.932;25.904;2024-02-04T11:36:44;21.77;;;12.33;;
8704;SDS011;4389;41.932;25.904;2024-02-04T11:39:11;18.17;;;12.43;;
8704;SDS011;4389;41.932;25.904;2024-02-04T11:41:47;14.77;;;11.10;;
8704;SDS011;4389;41.932;25.904;2024-02-04T11:44:19;14.80;;;11.13;;
8704;SDS011;4389;41.932;25.904;2024-02-04T11:46:47;13.73;;;10.10;;
8704;SDS011;4389;41.932;25.904;2024-02-04T11:49:14;16.97;;;11.87;;
8704;SDS011;4389;41.932;25.904;2024-02-04T11:51:45;14.47;;;10.77;;
8704;SDS011;4389;41.932;25.904;2024-02-04T11:54:14;13.13;;;10.57;;
8704;SDS011;4389;41.932;25.904;2024-02-04T11:56:43;16.67;;;10.67;;
8704;SDS011;4389;41.932;25.904;2024-02-04T11:59:10;14.63;;;10.70;;
8704;SDS011;4389;41.932;25.904;2024-02-04T12:01:39;12.73;;;11.07;;
8704;SDS011;4389;41.932;25.904;2024-02-04T12:04:09;18.20;;;12.87;;
8704;SDS011;4389;41.932;25.904;2024-02-04T12:06:38;19.07;;;12.40;;
8704;SDS011;4389;41.932;25.904;2024-02-04T12:09:06;18.47;;;12.93;;
8704;SDS011;4389;41.932;25.904;2024-02-04T12:11:35;18.17;;;12.70;;
8704;SDS011;4389;41.932;25.904;2024-02-04T12:14:03;24.80;;;13.43;;
8704;SDS011;4389;41.932;25.904;2024-02-04T12:16:31;22.90;;;15.87;;
8704;SDS011;4389;41.932;25.904;2024-02-04T12:19:00;20.80;;;13.60;;
8704;SDS011;4389;41.932;25.904;2024-02-04T12:21:28;19.93;;;15.47;;
8704;SDS011;4389;41.932;25.904;2024-02-04T12:23:55;23.17;;;15.90;;
8704;SDS011;4389;41.932;25.904;2024-02-04T12:26:24;27.93;;;14.70;;
8704;SDS011;4389;41.932;25.904;2024-02-04T12:28:51;17.93;;;11.37;;
8704;SDS011;4389;41.932;25.904;2024-02-04T12:31:18;16.77;;;12.80;;
8704;SDS011;4389;41.932;25.904;2024-02-04T12:33:52;19.30;;;12.63;;
8704;SDS011;4389;41.932;25.904;2024-02-04T12:36:23;21.17;;;13.70;;
8704;SDS011;4389;41.932;25.904;2024-02-04T12:38:54;18.73;;;12.37;;
8704;SDS011;4389;41.932;25.904;2024-02-04T12:41:23;17.83;;;11.90;;
8704;SDS011;4389;41.932;25.904;2024-02-04T12:43:51;17.37;;;12.40;;
8704;SDS011;4389;41.932;25.904;2024-02-04T12:46:19;18.47;;;13.33;;
8704;SDS011;4389;41.932;25.904;2024-02-04T12:48:51;18.37;;;14.33;;
8704;SDS011;4389;41.932;25.904;2024-02-04T12:51:25;17.50;;;13.67;;
8704;SDS011;4389;41.932;25.904;2024-02-04T12:54:02;22.30;;;12.80;;
8704;SDS011;4389;41.932;25.904;2024-02-04T12:56:42;15.27;;;11.50;;
8704;SDS011;4389;41.932;25.904;2024-02-04T12:59:11;20.97;;;14.37;;
8704;SDS011;4389;41.932;25.904;2024-02-04T13:01:38;24.13;;;13.77;;
8704;SDS011;4389;41.932;25.904;2024-02-04T13:04:05;18.83;;;14.10;;
8704;SDS011;4389;41.932;25.904;2024-02-04T13:06:37;16.93;;;13.40;;
8704;SDS011;4389;41.932;25.904;2024-02-04T13:09:04;17.13;;;12.60;;
8704;SDS011;4389;41.932;25.904;2024-02-04T13:11:34;16.73;;;11.87;;
8704;SDS011;4389;41.932;25.904;2024-02-04T13:14:02;15.57;;;11.43;;
8704;SDS011;4389;41.932;25.904;2024-02-04T13:16:29;17.17;;;12.43;;
8704;SDS011;4389;41.932;25.904;2024-02-04T13:18:57;19.67;;;12.60;;
8704;SDS011;4389;41.932;25.904;2024-02-04T13:21:23;17.70;;;13.93;;
8704;SDS011;4389;41.932;25.904;2024-02-04T13:23:50;19.87;;;13.77;;
8704;SDS011;4389;41.932;25.904;2024-02-04T13:26:17;17.57;;;12.93;;
8704;SDS011;4389;41.932;25.904;2024-02-04T13:28:44;18.70;;;12.83;;
8704;SDS011;4389;41.932;25.904;2024-02-04T13:31:13;12.47;;;10.33;;
8704;SDS011;4389;41.932;25.904;2024-02-04T13:33:40;15.83;;;12.27;;
8704;SDS011;4389;41.932;25.904;2024-02-04T13:36:07;17.13;;;12.70;;
8704;SDS011;4389;41.932;25.904;2024-02-04T13:38:34;16.60;;;11.87;;
8704;SDS011;4389;41.932;25.904;2024-02-04T13:41:01;17.03;;;12.67;;
8704;SDS011;4389;41.932;25.904;2024-02-04T13:43:29;21.47;;;13.77;;
8704;SDS011;4389;41.932;25.904;2024-02-04T13:45:56;17.33;;;13.53;;
8704;SDS011;4389;41.932;25.904;2024-02-04T13:48:24;19.90;;;13.30;;
8704;SDS011;4389;41.932;25.904;2024-02-04T13:50:51;17.53;;;12.83;;
8704;SDS011;4389;41.932;25.904;2024-02-04T13:53:19;16.97;;;14.10;;
8704;SDS011;4389;41.932;25.904;2024-02-04T13:55:46;17.10;;;12.47;;
8704;SDS011;4389;41.932;25.904;2024-02-04T13:58:13;22.90;;;13.40;;
8704;SDS011;4389;41.932;25.904;2024-02-04T14:00:40;14.50;;;12.50;;
8704;SDS011;4389;41.932;25.904;2024-02-04T14:03:07;23.33;;;15.57;;
8704;SDS011;4389;41.932;25.904;2024-02-04T14:05:36;28.20;;;14.80;;
8704;SDS011;4389;41.932;25.904;2024-02-04T14:08:03;22.17;;;16.60;;
8704;SDS011;4389;41.932;25.904;2024-02-04T14:10:30;27.37;;;16.47;;
8704;SDS011;4389;41.932;25.904;2024-02-04T14:12:57;24.97;;;17.60;;
8704;SDS011;4389;41.932;25.904;2024-02-04T14:15:24;24.53;;;18.27;;
8704;SDS011;4389;41.932;25.904;2024-02-04T14:17:51;23.47;;;17.73;;
8704;SDS011;4389;41.932;25.904;2024-02-04T14:20:19;28.00;;;19.17;;
8704;SDS011;4389;41.932;25.904;2024-02-04T14:22:48;30.83;;;20.23;;
8704;SDS011;4389;41.932;25.904;2024-02-04T14:25:16;28.13;;;19.63;;
8704;SDS011;4389;41.932;25.904;2024-02-04T14:27:43;30.80;;;21.33;;
8704;SDS011;4389;41.932;25.904;2024-02-04T14:30:10;36.87;;;21.93;;
8704;SDS011;4389;41.932;25.904;2024-02-04T14:32:37;32.27;;;18.53;;
8704;SDS011;4389;41.932;25.904;2024-02-04T14:35:04;24.10;;;17.67;;
8704;SDS011;4389;41.932;25.904;2024-02-04T14:37:33;33.90;;;19.57;;
8704;SDS011;4389;41.932;25.904;2024-02-04T14:40:02;29.63;;;21.90;;